sensor_id;sensor_type;location;lat;lon;timestamp;P1;durP1;ratioP1;P2;durP2;ratioP2
49876;SDS011;35771;48.978;9.294;2022-12-11T00:01:54;39.03;;;16.45;;
49876;SDS011;35771;48.978;9.294;2022-12-11T00:04:21;32.53;;;14.75;;
49876;SDS011;35771;48.978;9.294;2022-12-11T00:06:48;39.28;;;16.77;;
49876;SDS011;35771;48.978;9.294;2022-12-11T00:09:15;33.70;;;16.17;;
49876;SDS011;35771;48.978;9.294;2022-12-11T00:11:41;30.17;;;14.93;;
49876;SDS011;35771;48.978;9.294;2022-12-11T00:14:10;31.77;;;16.35;;
49876;SDS011;35771;48.978;9.294;2022-12-11T00:16:37;34.55;;;15.77;;
49876;SDS011;35771;48.978;9.294;2022-12-11T00:19:04;35.97;;;16.90;;
49876;SDS011;35771;48.978;9.294;2022-12-11T00:21:31;32.70;;;15.55;;
49876;SDS011;35771;48.978;9.294;2022-12-11T00:23:57;40.15;;;16.65;;
49876;SDS011;35771;48.978;9.294;2022-12-11T00:26:24;39.47;;;15.15;;
49876;SDS011;35771;48.978;9.294;2022-12-11T00:28:51;38.40;;;16.95;;
49876;SDS011;35771;48.978;9.294;2022-12-11T00:31:21;34.45;;;14.85;;
49876;SDS011;35771;48.978;9.294;2022-12-11T00:33:48;34.10;;;15.68;;
49876;SDS011;35771;48.978;9.294;2022-12-11T00:36:16;37.88;;;16.05;;
49876;SDS011;35771;48.978;9.294;2022-12-11T00:38:44;37.28;;;14.50;;
49876;SDS011;35771;48.978;9.294;2022-12-11T00:41:11;31.23;;;13.85;;
49876;SDS011;35771;48.978;9.294;2022-12-11T00:43:38;33.47;;;16.25;;
49876;SDS011;35771;48.978;9.294;2022-12-11T00:46:04;34.42;;;14.95;;
49876;SDS011;35771;48.978;9.294;2022-12-11T00:48:33;31.00;;;13.07;;
49876;SDS011;35771;48.978;9.294;2022-12-11T00:51:00;33.13;;;14.48;;
49876;SDS011;35771;48.978;9.294;2022-12-11T00:53:26;36.75;;;16.05;;
49876;SDS011;35771;48.978;9.294;2022-12-11T00:55:53;33.85;;;15.60;;
49876;SDS011;35771;48.978;9.294;2022-12-11T00:58:20;39.53;;;16.58;;
49876;SDS011;35771;48.978;9.294;2022-12-11T01:00:46;31.63;;;15.43;;
49876;SDS011;35771;48.978;9.294;2022-12-11T01:03:14;36.00;;;15.38;;
49876;SDS011;35771;48.978;9.294;2022-12-11T01:05:50;35.20;;;16.52;;
49876;SDS011;35771;48.978;9.294;2022-12-11T01:08:18;33.17;;;14.85;;
49876;SDS011;35771;48.978;9.294;2022-12-11T01:10:44;28.65;;;14.55;;
49876;SDS011;35771;48.978;9.294;2022-12-11T01:13:10;38.83;;;16.05;;
49876;SDS011;35771;48.978;9.294;2022-12-11T01:15:37;55.25;;;18.08;;
49876;SDS011;35771;48.978;9.294;2022-12-11T01:18:05;48.90;;;19.42;;
49876;SDS011;35771;48.978;9.294;2022-12-11T01:20:32;43.78;;;18.40;;
49876;SDS011;35771;48.978;9.294;2022-12-11T01:23:00;35.35;;;17.20;;
49876;SDS011;35771;48.978;9.294;2022-12-11T01:25:27;27.80;;;14.48;;
49876;SDS011;35771;48.978;9.294;2022-12-11T01:27:54;30.08;;;13.88;;
49876;SDS011;35771;48.978;9.294;2022-12-11T01:30:22;30.08;;;13.30;;
49876;SDS011;35771;48.978;9.294;2022-12-11T01:32:50;27.45;;;13.63;;
49876;SDS011;35771;48.978;9.294;2022-12-11T01:35:16;30.75;;;13.43;;
49876;SDS011;35771;48.978;9.294;2022-12-11T01:37:43;29.75;;;14.15;;
49876;SDS011;35771;48.978;9.294;2022-12-11T01:40:11;35.60;;;15.93;;
49876;SDS011;35771;48.978;9.294;2022-12-11T01:47:55;31.60;;;13.88;;
49876;SDS011;35771;48.978;9.294;2022-12-11T01:50:29;31.50;;;14.18;;
49876;SDS011;35771;48.978;9.294;2022-12-11T01:52:59;29.23;;;13.63;;
49876;SDS011;35771;48.978;9.294;2022-12-11T01:55:28;29.85;;;12.95;;
49876;SDS011;35771;48.978;9.294;2022-12-11T01:57:54;32.10;;;11.95;;
49876;SDS011;35771;48.978;9.294;2022-12-11T02:00:21;23.27;;;11.45;;
49876;SDS011;35771;48.978;9.294;2022-12-11T02:02:47;27.45;;;14.43;;
49876;SDS011;35771;48.978;9.294;2022-12-11T02:05:14;27.58;;;11.88;;
49876;SDS011;35771;48.978;9.294;2022-12-11T02:07:41;21.70;;;10.35;;
49876;SDS011;35771;48.978;9.294;2022-12-11T02:10:11;24.80;;;10.93;;
49876;SDS011;35771;48.978;9.294;2022-12-11T02:12:41;19.90;;;10.52;;
49876;SDS011;35771;48.978;9.294;2022-12-11T02:15:20;22.30;;;10.85;;
49876;SDS011;35771;48.978;9.294;2022-12-11T02:17:57;23.52;;;9.85;;
49876;SDS011;35771;48.978;9.294;2022-12-11T02:20:33;24.75;;;13.30;;
49876;SDS011;35771;48.978;9.294;2022-12-11T02:23:12;21.85;;;10.77;;
49876;SDS011;35771;48.978;9.294;2022-12-11T02:25:54;28.90;;;12.23;;
49876;SDS011;35771;48.978;9.294;2022-12-11T02:28:30;18.48;;;9.82;;
49876;SDS011;35771;48.978;9.294;2022-12-11T02:30:59;22.92;;;11.80;;
49876;SDS011;35771;48.978;9.294;2022-12-11T02:33:31;24.27;;;11.55;;
49876;SDS011;35771;48.978;9.294;2022-12-11T02:36:02;22.27;;;12.10;;
49876;SDS011;35771;48.978;9.294;2022-12-11T02:38:32;20.15;;;11.63;;
49876;SDS011;35771;48.978;9.294;2022-12-11T02:41:02;22.52;;;11.18;;
49876;SDS011;35771;48.978;9.294;2022-12-11T02:43:33;27.27;;;13.43;;
49876;SDS011;35771;48.978;9.294;2022-12-11T02:46:03;26.63;;;11.68;;
49876;SDS011;35771;48.978;9.294;2022-12-11T02:48:32;21.30;;;11.55;;
49876;SDS011;35771;48.978;9.294;2022-12-11T02:51:01;19.60;;;11.20;;
49876;SDS011;35771;48.978;9.294;2022-12-11T02:53:31;24.60;;;10.95;;
49876;SDS011;35771;48.978;9.294;2022-12-11T02:56:03;25.88;;;12.43;;
49876;SDS011;35771;48.978;9.294;2022-12-11T02:58:36;30.33;;;11.68;;
49876;SDS011;35771;48.978;9.294;2022-12-11T03:01:10;25.10;;;11.90;;
49876;SDS011;35771;48.978;9.294;2022-12-11T03:03:37;25.85;;;12.55;;
49876;SDS011;35771;48.978;9.294;2022-12-11T03:06:05;23.92;;;12.07;;
49876;SDS011;35771;48.978;9.294;2022-12-11T03:08:39;27.08;;;13.05;;
49876;SDS011;35771;48.978;9.294;2022-12-11T03:11:08;27.05;;;12.02;;
49876;SDS011;35771;48.978;9.294;2022-12-11T03:13:36;23.88;;;11.63;;
49876;SDS011;35771;48.978;9.294;2022-12-11T03:16:06;24.92;;;12.60;;
49876;SDS011;35771;48.978;9.294;2022-12-11T03:18:41;26.00;;;12.98;;
49876;SDS011;35771;48.978;9.294;2022-12-11T03:21:16;24.13;;;11.55;;
49876;SDS011;35771;48.978;9.294;2022-12-11T03:23:49;23.10;;;11.07;;
49876;SDS011;35771;48.978;9.294;2022-12-11T03:26:22;29.65;;;13.35;;
49876;SDS011;35771;48.978;9.294;2022-12-11T03:28:53;25.52;;;13.30;;
49876;SDS011;35771;48.978;9.294;2022-12-11T03:31:24;31.27;;;14.60;;
49876;SDS011;35771;48.978;9.294;2022-12-11T03:33:56;30.63;;;14.55;;
49876;SDS011;35771;48.978;9.294;2022-12-11T03:36:29;29.83;;;14.30;;
49876;SDS011;35771;48.978;9.294;2022-12-11T03:39:00;25.40;;;12.05;;
49876;SDS011;35771;48.978;9.294;2022-12-11T03:41:31;23.73;;;12.52;;
49876;SDS011;35771;48.978;9.294;2022-12-11T03:44:03;28.83;;;12.50;;
49876;SDS011;35771;48.978;9.294;2022-12-11T03:46:30;28.27;;;12.75;;
49876;SDS011;35771;48.978;9.294;2022-12-11T03:49:00;25.73;;;12.40;;
49876;SDS011;35771;48.978;9.294;2022-12-11T03:51:31;32.78;;;13.85;;
49876;SDS011;35771;48.978;9.294;2022-12-11T03:53:59;31.50;;;13.68;;
49876;SDS011;35771;48.978;9.294;2022-12-11T03:56:26;28.98;;;12.77;;
49876;SDS011;35771;48.978;9.294;2022-12-11T03:58:55;26.55;;;12.35;;
49876;SDS011;35771;48.978;9.294;2022-12-11T04:01:23;36.53;;;14.90;;
49876;SDS011;35771;48.978;9.294;2022-12-11T04:03:49;30.83;;;14.52;;
49876;SDS011;35771;48.978;9.294;2022-12-11T04:06:16;31.20;;;14.85;;
49876;SDS011;35771;48.978;9.294;2022-12-11T04:08:42;27.58;;;12.75;;
49876;SDS011;35771;48.978;9.294;2022-12-11T04:11:09;26.55;;;12.73;;
49876;SDS011;35771;48.978;9.294;2022-12-11T04:13:53;28.98;;;12.80;;
49876;SDS011;35771;48.978;9.294;2022-12-11T04:16:35;28.70;;;12.65;;
49876;SDS011;35771;48.978;9.294;2022-12-11T04:19:02;32.38;;;14.73;;
49876;SDS011;35771;48.978;9.294;2022-12-11T04:21:47;29.83;;;13.95;;
49876;SDS011;35771;48.978;9.294;2022-12-11T04:24:31;28.58;;;14.23;;
49876;SDS011;35771;48.978;9.294;2022-12-11T04:26:58;31.13;;;14.45;;
49876;SDS011;35771;48.978;9.294;2022-12-11T04:29:25;32.22;;;14.88;;
49876;SDS011;35771;48.978;9.294;2022-12-11T04:31:53;35.28;;;15.00;;
49876;SDS011;35771;48.978;9.294;2022-12-11T04:34:19;33.35;;;15.23;;
49876;SDS011;35771;48.978;9.294;2022-12-11T04:36:46;29.02;;;14.65;;
49876;SDS011;35771;48.978;9.294;2022-12-11T04:39:13;37.20;;;15.98;;
49876;SDS011;35771;48.978;9.294;2022-12-11T04:41:39;29.55;;;15.10;;
49876;SDS011;35771;48.978;9.294;2022-12-11T04:44:06;33.55;;;16.45;;
49876;SDS011;35771;48.978;9.294;2022-12-11T04:46:33;32.33;;;14.52;;
49876;SDS011;35771;48.978;9.294;2022-12-11T04:49:01;35.08;;;15.57;;
49876;SDS011;35771;48.978;9.294;2022-12-11T04:51:28;33.00;;;15.52;;
49876;SDS011;35771;48.978;9.294;2022-12-11T04:53:54;33.95;;;14.88;;
49876;SDS011;35771;48.978;9.294;2022-12-11T04:56:21;30.83;;;14.68;;
49876;SDS011;35771;48.978;9.294;2022-12-11T04:58:50;27.77;;;13.98;;
49876;SDS011;35771;48.978;9.294;2022-12-11T05:01:17;34.15;;;14.88;;
49876;SDS011;35771;48.978;9.294;2022-12-11T05:03:45;34.05;;;15.35;;
49876;SDS011;35771;48.978;9.294;2022-12-11T05:06:13;35.17;;;14.50;;
49876;SDS011;35771;48.978;9.294;2022-12-11T05:08:41;30.35;;;14.25;;
49876;SDS011;35771;48.978;9.294;2022-12-11T05:11:09;31.85;;;15.55;;
49876;SDS011;35771;48.978;9.294;2022-12-11T05:13:38;33.05;;;14.52;;
49876;SDS011;35771;48.978;9.294;2022-12-11T05:16:06;34.88;;;15.02;;
49876;SDS011;35771;48.978;9.294;2022-12-11T05:18:34;28.77;;;13.10;;
49876;SDS011;35771;48.978;9.294;2022-12-11T05:21:01;30.30;;;14.07;;
49876;SDS011;35771;48.978;9.294;2022-12-11T05:23:31;36.83;;;14.35;;
49876;SDS011;35771;48.978;9.294;2022-12-11T05:25:59;35.67;;;15.52;;
49876;SDS011;35771;48.978;9.294;2022-12-11T05:28:28;33.08;;;15.15;;
49876;SDS011;35771;48.978;9.294;2022-12-11T05:30:57;37.25;;;14.80;;
49876;SDS011;35771;48.978;9.294;2022-12-11T05:33:25;37.33;;;16.50;;
49876;SDS011;35771;48.978;9.294;2022-12-11T05:35:52;35.40;;;15.32;;
49876;SDS011;35771;48.978;9.294;2022-12-11T05:38:19;34.22;;;15.50;;
49876;SDS011;35771;48.978;9.294;2022-12-11T05:40:55;34.13;;;15.43;;
49876;SDS011;35771;48.978;9.294;2022-12-11T05:43:22;36.20;;;14.45;;
49876;SDS011;35771;48.978;9.294;2022-12-11T05:45:49;32.92;;;15.13;;
49876;SDS011;35771;48.978;9.294;2022-12-11T05:48:16;32.75;;;16.45;;
49876;SDS011;35771;48.978;9.294;2022-12-11T05:50:42;33.70;;;15.65;;
49876;SDS011;35771;48.978;9.294;2022-12-11T05:53:09;37.38;;;15.48;;
49876;SDS011;35771;48.978;9.294;2022-12-11T05:55:36;33.85;;;13.93;;
49876;SDS011;35771;48.978;9.294;2022-12-11T05:58:04;30.17;;;14.70;;
49876;SDS011;35771;48.978;9.294;2022-12-11T06:00:30;31.98;;;14.20;;
49876;SDS011;35771;48.978;9.294;2022-12-11T06:02:57;31.23;;;13.77;;
49876;SDS011;35771;48.978;9.294;2022-12-11T06:05:23;30.08;;;14.90;;
49876;SDS011;35771;48.978;9.294;2022-12-11T06:07:50;28.58;;;13.38;;
49876;SDS011;35771;48.978;9.294;2022-12-11T06:10:16;41.10;;;16.23;;
49876;SDS011;35771;48.978;9.294;2022-12-11T06:12:43;36.67;;;14.80;;
49876;SDS011;35771;48.978;9.294;2022-12-11T06:15:11;35.70;;;15.00;;
49876;SDS011;35771;48.978;9.294;2022-12-11T06:17:37;34.90;;;15.98;;
49876;SDS011;35771;48.978;9.294;2022-12-11T06:20:04;27.98;;;14.05;;
49876;SDS011;35771;48.978;9.294;2022-12-11T06:22:31;31.63;;;15.32;;
49876;SDS011;35771;48.978;9.294;2022-12-11T06:24:58;33.15;;;15.05;;
49876;SDS011;35771;48.978;9.294;2022-12-11T06:27:24;34.60;;;14.43;;
49876;SDS011;35771;48.978;9.294;2022-12-11T06:29:51;34.03;;;14.00;;
49876;SDS011;35771;48.978;9.294;2022-12-11T06:32:19;34.65;;;14.73;;
49876;SDS011;35771;48.978;9.294;2022-12-11T06:34:45;33.35;;;15.68;;
49876;SDS011;35771;48.978;9.294;2022-12-11T06:37:12;39.03;;;16.88;;
49876;SDS011;35771;48.978;9.294;2022-12-11T06:39:39;38.72;;;15.75;;
49876;SDS011;35771;48.978;9.294;2022-12-11T06:42:05;34.63;;;16.08;;
49876;SDS011;35771;48.978;9.294;2022-12-11T06:44:32;35.72;;;16.30;;
49876;SDS011;35771;48.978;9.294;2022-12-11T06:46:59;38.35;;;16.17;;
49876;SDS011;35771;48.978;9.294;2022-12-11T06:49:26;36.88;;;17.15;;
49876;SDS011;35771;48.978;9.294;2022-12-11T06:51:54;35.50;;;15.87;;
49876;SDS011;35771;48.978;9.294;2022-12-11T06:54:24;40.80;;;16.80;;
49876;SDS011;35771;48.978;9.294;2022-12-11T06:56:51;43.90;;;17.17;;
49876;SDS011;35771;48.978;9.294;2022-12-11T06:59:17;37.13;;;16.65;;
49876;SDS011;35771;48.978;9.294;2022-12-11T07:01:44;34.88;;;15.07;;
49876;SDS011;35771;48.978;9.294;2022-12-11T07:04:10;32.55;;;15.35;;
49876;SDS011;35771;48.978;9.294;2022-12-11T07:06:38;39.78;;;17.98;;
49876;SDS011;35771;48.978;9.294;2022-12-11T07:09:05;39.53;;;17.02;;
49876;SDS011;35771;48.978;9.294;2022-12-11T07:11:32;39.92;;;16.73;;
49876;SDS011;35771;48.978;9.294;2022-12-11T07:13:59;41.33;;;18.92;;
49876;SDS011;35771;48.978;9.294;2022-12-11T07:16:25;37.33;;;16.08;;
49876;SDS011;35771;48.978;9.294;2022-12-11T07:18:52;41.92;;;18.55;;
49876;SDS011;35771;48.978;9.294;2022-12-11T07:21:19;39.45;;;17.27;;
49876;SDS011;35771;48.978;9.294;2022-12-11T07:23:47;36.90;;;15.65;;
49876;SDS011;35771;48.978;9.294;2022-12-11T07:26:24;40.73;;;16.40;;
49876;SDS011;35771;48.978;9.294;2022-12-11T07:28:51;39.45;;;17.38;;
49876;SDS011;35771;48.978;9.294;2022-12-11T07:31:18;39.83;;;16.08;;
49876;SDS011;35771;48.978;9.294;2022-12-11T07:33:47;37.30;;;15.50;;
49876;SDS011;35771;48.978;9.294;2022-12-11T07:36:17;38.50;;;16.83;;
49876;SDS011;35771;48.978;9.294;2022-12-11T07:38:44;39.50;;;16.35;;
49876;SDS011;35771;48.978;9.294;2022-12-11T07:41:12;38.85;;;16.13;;
49876;SDS011;35771;48.978;9.294;2022-12-11T07:43:40;39.92;;;15.52;;
49876;SDS011;35771;48.978;9.294;2022-12-11T07:46:09;37.88;;;16.80;;
49876;SDS011;35771;48.978;9.294;2022-12-11T07:48:38;42.85;;;17.65;;
49876;SDS011;35771;48.978;9.294;2022-12-11T07:51:06;40.47;;;16.77;;
49876;SDS011;35771;48.978;9.294;2022-12-11T07:53:34;44.67;;;18.20;;
49876;SDS011;35771;48.978;9.294;2022-12-11T07:56:01;47.92;;;18.65;;
49876;SDS011;35771;48.978;9.294;2022-12-11T07:58:29;45.72;;;19.15;;
49876;SDS011;35771;48.978;9.294;2022-12-11T08:00:56;48.83;;;19.55;;
49876;SDS011;35771;48.978;9.294;2022-12-11T08:03:23;47.25;;;19.77;;
49876;SDS011;35771;48.978;9.294;2022-12-11T08:05:51;43.65;;;18.60;;
49876;SDS011;35771;48.978;9.294;2022-12-11T08:08:29;47.28;;;16.77;;
49876;SDS011;35771;48.978;9.294;2022-12-11T08:10:59;42.47;;;18.40;;
49876;SDS011;35771;48.978;9.294;2022-12-11T08:13:26;44.47;;;18.35;;
49876;SDS011;35771;48.978;9.294;2022-12-11T08:15:54;38.00;;;17.70;;
49876;SDS011;35771;48.978;9.294;2022-12-11T08:18:20;41.70;;;17.45;;
49876;SDS011;35771;48.978;9.294;2022-12-11T08:20:47;48.97;;;19.20;;
49876;SDS011;35771;48.978;9.294;2022-12-11T08:23:13;44.95;;;18.88;;
49876;SDS011;35771;48.978;9.294;2022-12-11T08:25:40;43.95;;;18.45;;
49876;SDS011;35771;48.978;9.294;2022-12-11T08:28:07;44.55;;;18.33;;
49876;SDS011;35771;48.978;9.294;2022-12-11T08:30:33;47.22;;;19.15;;
49876;SDS011;35771;48.978;9.294;2022-12-11T08:33:01;46.70;;;20.05;;
49876;SDS011;35771;48.978;9.294;2022-12-11T08:35:28;42.67;;;19.30;;
49876;SDS011;35771;48.978;9.294;2022-12-11T08:37:55;40.10;;;18.85;;
49876;SDS011;35771;48.978;9.294;2022-12-11T08:40:21;38.78;;;18.25;;
49876;SDS011;35771;48.978;9.294;2022-12-11T08:42:48;42.42;;;18.58;;
49876;SDS011;35771;48.978;9.294;2022-12-11T08:45:16;44.78;;;17.42;;
49876;SDS011;35771;48.978;9.294;2022-12-11T08:47:44;46.22;;;19.77;;
49876;SDS011;35771;48.978;9.294;2022-12-11T08:50:12;47.63;;;18.60;;
49876;SDS011;35771;48.978;9.294;2022-12-11T08:52:39;44.60;;;18.05;;
49876;SDS011;35771;48.978;9.294;2022-12-11T08:55:06;39.85;;;18.70;;
49876;SDS011;35771;48.978;9.294;2022-12-11T08:57:33;39.78;;;17.90;;
49876;SDS011;35771;48.978;9.294;2022-12-11T08:59:59;41.08;;;18.35;;
49876;SDS011;35771;48.978;9.294;2022-12-11T09:02:26;40.05;;;14.35;;
49876;SDS011;35771;48.978;9.294;2022-12-11T09:04:52;42.90;;;16.65;;
49876;SDS011;35771;48.978;9.294;2022-12-11T09:07:20;46.83;;;19.35;;
49876;SDS011;35771;48.978;9.294;2022-12-11T09:09:47;41.92;;;18.20;;
49876;SDS011;35771;48.978;9.294;2022-12-11T09:12:13;43.78;;;18.80;;
49876;SDS011;35771;48.978;9.294;2022-12-11T09:14:40;52.97;;;19.10;;
49876;SDS011;35771;48.978;9.294;2022-12-11T09:17:06;43.35;;;19.65;;
49876;SDS011;35771;48.978;9.294;2022-12-11T09:19:33;40.05;;;17.50;;
49876;SDS011;35771;48.978;9.294;2022-12-11T09:21:59;39.80;;;18.55;;
49876;SDS011;35771;48.978;9.294;2022-12-11T09:24:27;42.25;;;18.13;;
49876;SDS011;35771;48.978;9.294;2022-12-11T09:26:54;42.35;;;18.40;;
49876;SDS011;35771;48.978;9.294;2022-12-11T09:29:20;44.58;;;19.08;;
49876;SDS011;35771;48.978;9.294;2022-12-11T09:31:47;51.30;;;19.40;;
49876;SDS011;35771;48.978;9.294;2022-12-11T09:34:14;42.10;;;18.90;;
49876;SDS011;35771;48.978;9.294;2022-12-11T09:36:41;42.97;;;18.30;;
49876;SDS011;35771;48.978;9.294;2022-12-11T09:39:09;46.55;;;18.92;;
49876;SDS011;35771;48.978;9.294;2022-12-11T09:41:39;44.92;;;18.23;;
49876;SDS011;35771;48.978;9.294;2022-12-11T09:44:19;45.47;;;20.10;;
49876;SDS011;35771;48.978;9.294;2022-12-11T09:46:53;37.20;;;16.35;;
49876;SDS011;35771;48.978;9.294;2022-12-11T09:49:25;43.50;;;18.40;;
49876;SDS011;35771;48.978;9.294;2022-12-11T09:51:58;57.70;;;21.13;;
49876;SDS011;35771;48.978;9.294;2022-12-11T09:54:31;43.05;;;18.00;;
49876;SDS011;35771;48.978;9.294;2022-12-11T09:57:04;41.15;;;17.35;;
49876;SDS011;35771;48.978;9.294;2022-12-11T09:59:44;46.88;;;18.60;;
49876;SDS011;35771;48.978;9.294;2022-12-11T10:02:26;40.03;;;17.05;;
49876;SDS011;35771;48.978;9.294;2022-12-11T10:05:05;43.70;;;18.77;;
49876;SDS011;35771;48.978;9.294;2022-12-11T10:07:44;41.92;;;16.80;;
49876;SDS011;35771;48.978;9.294;2022-12-11T10:10:18;44.35;;;19.35;;
49876;SDS011;35771;48.978;9.294;2022-12-11T10:12:58;47.70;;;18.20;;
49876;SDS011;35771;48.978;9.294;2022-12-11T10:15:33;56.80;;;18.63;;
49876;SDS011;35771;48.978;9.294;2022-12-11T10:18:04;45.72;;;19.20;;
49876;SDS011;35771;48.978;9.294;2022-12-11T10:20:38;47.70;;;18.73;;
49876;SDS011;35771;48.978;9.294;2022-12-11T10:23:07;49.00;;;19.30;;
49876;SDS011;35771;48.978;9.294;2022-12-11T10:25:35;54.70;;;19.70;;
49876;SDS011;35771;48.978;9.294;2022-12-11T10:28:10;41.22;;;18.05;;
49876;SDS011;35771;48.978;9.294;2022-12-11T10:30:40;38.50;;;17.75;;
49876;SDS011;35771;48.978;9.294;2022-12-11T10:33:13;42.70;;;18.27;;
49876;SDS011;35771;48.978;9.294;2022-12-11T10:35:47;30.52;;;13.68;;
49876;SDS011;35771;48.978;9.294;2022-12-11T10:38:16;43.47;;;17.55;;
49876;SDS011;35771;48.978;9.294;2022-12-11T10:40:49;39.78;;;16.48;;
49876;SDS011;35771;48.978;9.294;2022-12-11T10:43:18;44.72;;;17.73;;
49876;SDS011;35771;48.978;9.294;2022-12-11T10:45:51;50.53;;;16.67;;
49876;SDS011;35771;48.978;9.294;2022-12-11T10:48:18;38.05;;;17.10;;
49876;SDS011;35771;48.978;9.294;2022-12-11T10:50:54;37.20;;;16.02;;
49876;SDS011;35771;48.978;9.294;2022-12-11T10:53:22;36.92;;;16.50;;
49876;SDS011;35771;48.978;9.294;2022-12-11T10:55:50;39.17;;;16.27;;
49876;SDS011;35771;48.978;9.294;2022-12-11T10:58:19;41.95;;;15.98;;
49876;SDS011;35771;48.978;9.294;2022-12-11T11:00:48;37.75;;;15.07;;
49876;SDS011;35771;48.978;9.294;2022-12-11T11:03:29;37.58;;;16.30;;
49876;SDS011;35771;48.978;9.294;2022-12-11T11:06:05;38.70;;;15.05;;
49876;SDS011;35771;48.978;9.294;2022-12-11T11:08:40;37.92;;;15.93;;
49876;SDS011;35771;48.978;9.294;2022-12-11T11:11:19;34.00;;;14.45;;
49876;SDS011;35771;48.978;9.294;2022-12-11T11:13:49;34.85;;;15.30;;
49876;SDS011;35771;48.978;9.294;2022-12-11T11:16:16;35.10;;;15.88;;
49876;SDS011;35771;48.978;9.294;2022-12-11T11:18:48;35.35;;;15.35;;
49876;SDS011;35771;48.978;9.294;2022-12-11T11:21:17;31.27;;;14.25;;
49876;SDS011;35771;48.978;9.294;2022-12-11T11:23:45;37.45;;;15.88;;
49876;SDS011;35771;48.978;9.294;2022-12-11T11:26:11;36.75;;;16.90;;
49876;SDS011;35771;48.978;9.294;2022-12-11T11:28:39;39.65;;;16.27;;
49876;SDS011;35771;48.978;9.294;2022-12-11T11:31:14;32.25;;;15.30;;
49876;SDS011;35771;48.978;9.294;2022-12-11T11:33:44;35.10;;;15.30;;
49876;SDS011;35771;48.978;9.294;2022-12-11T11:36:18;39.47;;;16.75;;
49876;SDS011;35771;48.978;9.294;2022-12-11T11:38:47;32.65;;;14.95;;
49876;SDS011;35771;48.978;9.294;2022-12-11T11:41:23;36.92;;;16.83;;
49876;SDS011;35771;48.978;9.294;2022-12-11T11:43:53;37.25;;;18.95;;
49876;SDS011;35771;48.978;9.294;2022-12-11T11:46:24;37.38;;;14.98;;
49876;SDS011;35771;48.978;9.294;2022-12-11T11:49:02;42.40;;;17.15;;
49876;SDS011;35771;48.978;9.294;2022-12-11T11:51:33;37.33;;;15.52;;
49876;SDS011;35771;48.978;9.294;2022-12-11T11:54:06;44.22;;;17.95;;
49876;SDS011;35771;48.978;9.294;2022-12-11T11:56:45;37.55;;;14.77;;
49876;SDS011;35771;48.978;9.294;2022-12-11T11:59:18;34.38;;;15.38;;
49876;SDS011;35771;48.978;9.294;2022-12-11T12:01:53;40.95;;;16.92;;
49876;SDS011;35771;48.978;9.294;2022-12-11T12:04:21;48.85;;;16.63;;
49876;SDS011;35771;48.978;9.294;2022-12-11T12:06:55;35.85;;;16.70;;
49876;SDS011;35771;48.978;9.294;2022-12-11T12:09:32;40.88;;;18.00;;
49876;SDS011;35771;48.978;9.294;2022-12-11T12:12:14;43.33;;;17.08;;
49876;SDS011;35771;48.978;9.294;2022-12-11T12:14:53;40.00;;;16.88;;
49876;SDS011;35771;48.978;9.294;2022-12-11T12:17:46;39.72;;;16.90;;
49876;SDS011;35771;48.978;9.294;2022-12-11T12:20:18;38.53;;;15.35;;
49876;SDS011;35771;48.978;9.294;2022-12-11T12:22:55;41.78;;;17.27;;
49876;SDS011;35771;48.978;9.294;2022-12-11T12:25:30;38.40;;;14.95;;
49876;SDS011;35771;48.978;9.294;2022-12-11T12:28:04;38.00;;;16.08;;
49876;SDS011;35771;48.978;9.294;2022-12-11T12:30:47;39.50;;;17.00;;
49876;SDS011;35771;48.978;9.294;2022-12-11T12:33:30;36.33;;;14.80;;
49876;SDS011;35771;48.978;9.294;2022-12-11T12:36:10;34.40;;;14.55;;
49876;SDS011;35771;48.978;9.294;2022-12-11T12:38:45;42.08;;;19.77;;
49876;SDS011;35771;48.978;9.294;2022-12-11T12:41:19;34.40;;;16.90;;
49876;SDS011;35771;48.978;9.294;2022-12-11T12:43:57;38.00;;;15.52;;
49876;SDS011;35771;48.978;9.294;2022-12-11T12:46:37;36.50;;;15.27;;
49876;SDS011;35771;48.978;9.294;2022-12-11T12:49:13;37.85;;;18.88;;
49876;SDS011;35771;48.978;9.294;2022-12-11T12:51:42;36.15;;;16.50;;
49876;SDS011;35771;48.978;9.294;2022-12-11T12:54:11;53.58;;;23.90;;
49876;SDS011;35771;48.978;9.294;2022-12-11T12:56:42;34.30;;;15.00;;
49876;SDS011;35771;48.978;9.294;2022-12-11T12:59:17;35.25;;;15.35;;
49876;SDS011;35771;48.978;9.294;2022-12-11T13:01:46;36.58;;;14.30;;
49876;SDS011;35771;48.978;9.294;2022-12-11T13:04:26;30.15;;;13.93;;
49876;SDS011;35771;48.978;9.294;2022-12-11T13:07:09;36.83;;;14.80;;
49876;SDS011;35771;48.978;9.294;2022-12-11T13:09:41;29.55;;;13.07;;
49876;SDS011;35771;48.978;9.294;2022-12-11T13:12:11;32.72;;;15.00;;
49876;SDS011;35771;48.978;9.294;2022-12-11T13:14:40;43.90;;;17.58;;
49876;SDS011;35771;48.978;9.294;2022-12-11T13:17:21;36.75;;;14.68;;
49876;SDS011;35771;48.978;9.294;2022-12-11T13:20:05;38.25;;;15.45;;
49876;SDS011;35771;48.978;9.294;2022-12-11T13:22:45;36.65;;;15.70;;
49876;SDS011;35771;48.978;9.294;2022-12-11T13:25:19;40.25;;;16.42;;
49876;SDS011;35771;48.978;9.294;2022-12-11T13:27:48;32.80;;;13.20;;
49876;SDS011;35771;48.978;9.294;2022-12-11T13:30:22;37.50;;;14.80;;
49876;SDS011;35771;48.978;9.294;2022-12-11T13:32:57;34.72;;;14.07;;
49876;SDS011;35771;48.978;9.294;2022-12-11T13:35:28;34.55;;;13.25;;
49876;SDS011;35771;48.978;9.294;2022-12-11T13:37:57;33.95;;;13.75;;
49876;SDS011;35771;48.978;9.294;2022-12-11T13:40:32;34.17;;;16.15;;
49876;SDS011;35771;48.978;9.294;2022-12-11T13:43:04;33.03;;;13.70;;
49876;SDS011;35771;48.978;9.294;2022-12-11T13:45:37;34.15;;;13.85;;
49876;SDS011;35771;48.978;9.294;2022-12-11T13:48:12;35.30;;;14.23;;
49876;SDS011;35771;48.978;9.294;2022-12-11T13:50:45;35.38;;;14.27;;
49876;SDS011;35771;48.978;9.294;2022-12-11T13:53:13;32.95;;;13.60;;
49876;SDS011;35771;48.978;9.294;2022-12-11T13:55:41;36.22;;;14.90;;
49876;SDS011;35771;48.978;9.294;2022-12-11T13:58:13;25.75;;;13.75;;
49876;SDS011;35771;48.978;9.294;2022-12-11T14:00:42;31.10;;;12.68;;
49876;SDS011;35771;48.978;9.294;2022-12-11T14:05:50;23.48;;;11.82;;
49876;SDS011;35771;48.978;9.294;2022-12-11T14:08:19;24.52;;;10.80;;
49876;SDS011;35771;48.978;9.294;2022-12-11T14:10:49;30.17;;;12.48;;
49876;SDS011;35771;48.978;9.294;2022-12-11T14:13:18;25.50;;;10.70;;
49876;SDS011;35771;48.978;9.294;2022-12-11T14:15:48;31.92;;;12.77;;
49876;SDS011;35771;48.978;9.294;2022-12-11T14:18:17;28.38;;;12.77;;
49876;SDS011;35771;48.978;9.294;2022-12-11T14:20:53;33.88;;;13.85;;
49876;SDS011;35771;48.978;9.294;2022-12-11T14:23:21;32.72;;;14.82;;
49876;SDS011;35771;48.978;9.294;2022-12-11T14:25:52;27.65;;;11.82;;
49876;SDS011;35771;48.978;9.294;2022-12-11T14:28:20;28.55;;;12.02;;
49876;SDS011;35771;48.978;9.294;2022-12-11T14:30:51;27.20;;;11.32;;
49876;SDS011;35771;48.978;9.294;2022-12-11T14:33:20;27.33;;;12.35;;
49876;SDS011;35771;48.978;9.294;2022-12-11T14:35:50;27.50;;;11.05;;
49876;SDS011;35771;48.978;9.294;2022-12-11T14:38:20;23.90;;;10.98;;
49876;SDS011;35771;48.978;9.294;2022-12-11T14:40:52;23.45;;;10.93;;
49876;SDS011;35771;48.978;9.294;2022-12-11T14:43:22;27.92;;;11.55;;
49876;SDS011;35771;48.978;9.294;2022-12-11T14:45:54;33.15;;;11.43;;